X  Cerrar Datos meteorológicos de aviación METAR     EDDK Cologne Bonn Airport
Temperatura
5°C Temperatura
4°C Punto de rocío
93% Humedad



Viento
16 KM/H
10 MPH
4 M/S
9 NUDO



340°
NNO
Condiciones actuales

Mayormente nublado Mayormente nublado
Presión 1009.82 (hPa) - 29.82 (inHg)
Visibilidad 6 (milla) - 9.7 (km)
Aeropuerto
Código de aeropuerto EDDK

localidad: Cologne Bonn Airport
Distancia: 56 (km)

Metar:
EDDK 170150Z AUTO 34009KT 9999 BKN015 05/04 Q1010 TEMPO BKN012

Hora: 2024-04-17 03:50 CEST